sensor_id;sensor_type;location;lat;lon;timestamp;pressure;altitude;pressure_sealevel;temperature;humidity
46382;BME280;66809;52.974;-2.514;2024-01-25T00:01:39;1020.4886355467327;;;2.4297842724301986;41.87351090845828
46382;BME280;66809;52.974;-2.514;2024-01-25T00:03:39;1020.4852346016154;;;2.45145143279948;41.874170814668936
46382;BME280;66809;52.974;-2.514;2024-01-25T00:05:38;1020.4811319940661;;;2.466345742299146;41.85198886369429
46382;BME280;66809;52.974;-2.514;2024-01-25T00:07:47;1020.4774578625645;;;2.4844577861422312;41.825104290162486
46382;BME280;66809;52.974;-2.514;2024-01-25T00:09:39;1020.4758043784041;;;2.506189488075863;41.808936046407936
46382;BME280;66809;52.974;-2.514;2024-01-25T00:11:40;1020.473131722269;;;2.523473180471919;41.81839674083236
46382;BME280;66809;52.974;-2.514;2024-01-25T00:13:39;1020.4710545985212;;;2.5437040804595394;41.85330048407382
46382;BME280;66809;52.974;-2.514;2024-01-25T00:15:39;1020.4698736280119;;;2.5557268238546187;41.88876248875371
46382;BME280;66809;52.974;-2.514;2024-01-25T00:17:39;1020.4710853044373;;;2.5558128730064458;41.919476925128166
46382;BME280;66809;52.974;-2.514;2024-01-25T00:19:39;1020.4729882309864;;;2.5521851564876097;41.972008270080124
46382;BME280;66809;52.974;-2.514;2024-01-25T00:21:42;1020.4733419102082;;;2.5327009924911494;42.05568910152702
46382;BME280;66809;52.974;-2.514;2024-01-25T00:23:39;1020.4726336382039;;;2.5234759404351688;42.16275995380808
46382;BME280;66809;52.974;-2.514;2024-01-25T00:25:39;1020.4700580751013;;;2.502339415125349;42.27183992859325
46382;BME280;66809;52.974;-2.514;2024-01-25T00:27:39;1020.4655102581328;;;2.4883874206228658;42.340503670455305
46382;BME280;66809;52.974;-2.514;2024-01-25T00:29:39;1020.4598791652801;;;2.4687799744752743;42.41303508794028
46382;BME280;66809;52.974;-2.514;2024-01-25T00:31:39;1020.4543638502654;;;2.4518021891076884;42.49498989029824
46382;BME280;66809;52.974;-2.514;2024-01-25T00:33:39;1020.4488434814488;;;2.4461914540317347;42.596752680352346
46382;BME280;66809;52.974;-2.514;2024-01-25T00:35:39;1020.4432724679441;;;2.443771865828008;42.686473550547575
46382;BME280;66809;52.974;-2.514;2024-01-25T00:37:40;1020.4382712410859;;;2.455155687243113;42.759203532036594
46382;BME280;66809;52.974;-2.514;2024-01-25T00:39:39;1020.4306872452348;;;2.4594224829151217;42.79541087709413
46382;BME280;66809;52.974;-2.514;2024-01-25T00:41:40;1020.4226235503189;;;2.4791908677637027;42.81526199176171
46382;BME280;66809;52.974;-2.514;2024-01-25T00:43:39;1020.4136441025919;;;2.4859092417999755;42.841940170490695
46382;BME280;66809;52.974;-2.514;2024-01-25T00:45:40;1020.4081216863835;;;2.4908549468044927;42.86495233108691
46382;BME280;66809;52.974;-2.514;2024-01-25T00:47:40;1020.4042960738295;;;2.5001203191539436;42.88025131254863
46382;BME280;66809;52.974;-2.514;2024-01-25T00:49:39;1020.402250401937;;;2.4946567245918616;42.912068799312685
46382;BME280;66809;52.974;-2.514;2024-01-25T00:51:41;1020.3992697799764;;;2.48764997856429;42.935628215417395
46382;BME280;66809;52.974;-2.514;2024-01-25T00:53:39;1020.3957114236576;;;2.4759230121032614;42.92428572892738
46382;BME280;66809;52.974;-2.514;2024-01-25T00:55:39;1020.3903661908397;;;2.4589519483077513;42.918016144425806
46382;BME280;66809;52.974;-2.514;2024-01-25T00:57:40;1020.3839034677062;;;2.433303976539024;42.93894781102475
46382;BME280;66809;52.974;-2.514;2024-01-25T00:59:39;1020.3767979541606;;;2.391724310410554;43.003628319047614
46382;BME280;66809;52.974;-2.514;2024-01-25T01:01:40;1020.3701392911629;;;2.36611128780112;43.07243727809181
46382;BME280;66809;52.974;-2.514;2024-01-25T01:03:40;1020.3655465814314;;;2.3411757105170072;43.15861371656652
46382;BME280;66809;52.974;-2.514;2024-01-25T01:05:40;1020.3620334804995;;;2.3206790604130316;43.25292376071162
46382;BME280;66809;52.974;-2.514;2024-01-25T01:07:39;1020.3578223773109;;;2.302240724634014;43.34532825461175
46382;BME280;66809;52.974;-2.514;2024-01-25T01:09:39;1020.3509262352768;;;2.282122083600166;43.43987166029004
46382;BME280;66809;52.974;-2.514;2024-01-25T01:11:39;1020.3433004891814;;;2.265938970071084;43.5283455334258
46382;BME280;66809;52.974;-2.514;2024-01-25T01:13:40;1020.3348617987008;;;2.252724567619491;43.601790122617736
46382;BME280;66809;52.974;-2.514;2024-01-25T01:15:39;1020.3263804794967;;;2.238651889226249;43.6661939286171
46382;BME280;66809;52.974;-2.514;2024-01-25T01:17:39;1020.3158636409893;;;2.2388948425131043;43.73244353206192
46382;BME280;66809;52.974;-2.514;2024-01-25T01:19:39;1020.3045394599004;;;2.24766521627699;43.784275410319346
46382;BME280;66809;52.974;-2.514;2024-01-25T01:21:39;1020.291938134216;;;2.254186034310033;43.81056923479783
46382;BME280;66809;52.974;-2.514;2024-01-25T01:23:39;1020.2791573093241;;;2.260436654111088;43.81696547879232
46382;BME280;66809;52.974;-2.514;2024-01-25T01:25:39;1020.2667571150055;;;2.265778566249135;43.847558341225536
46382;BME280;66809;52.974;-2.514;2024-01-25T01:27:39;1020.2550774264672;;;2.2765729751760744;43.935287229506095
46382;BME280;66809;52.974;-2.514;2024-01-25T01:29:39;1020.2405790399042;;;2.3044151251774627;44.028378002120704
46382;BME280;66809;52.974;-2.514;2024-01-25T01:31:39;1020.2232790521704;;;2.3369102837309654;44.107268699027856
46382;BME280;66809;52.974;-2.514;2024-01-25T01:33:39;1020.2035246047545;;;2.3682951353137773;44.14238690217746
46382;BME280;66809;52.974;-2.514;2024-01-25T01:35:39;1020.1810999875748;;;2.397029881072689;44.15094208231268
46382;BME280;66809;52.974;-2.514;2024-01-25T01:37:39;1020.1568029396423;;;2.4271408068261917;44.153891655685094
46382;BME280;66809;52.974;-2.514;2024-01-25T01:39:39;1020.1340145831986;;;2.4502886888943967;44.152879488301124
46382;BME280;66809;52.974;-2.514;2024-01-25T01:41:39;1020.1099827815434;;;2.478717698334677;44.156276399430006
46382;BME280;66809;52.974;-2.514;2024-01-25T01:43:39;1020.0850196463592;;;2.501655222889837;44.16946469522864
46382;BME280;66809;52.974;-2.514;2024-01-25T01:45:39;1020.0582477763791;;;2.5199215777737694;44.181268572533504
46382;BME280;66809;52.974;-2.514;2024-01-25T01:47:39;1020.031384009523;;;2.524199956034507;44.203554480878616
46382;BME280;66809;52.974;-2.514;2024-01-25T01:49:39;1020.0023082463345;;;2.540829718346247;44.21422513375219
46382;BME280;66809;52.974;-2.514;2024-01-25T01:51:40;1019.9735165982776;;;2.5687828517782876;44.23418157627368
46382;BME280;66809;52.974;-2.514;2024-01-25T01:53:40;1019.9443257837289;;;2.594673262019245;44.30317898248153
46382;BME280;66809;52.974;-2.514;2024-01-25T01:55:40;1019.9170689535691;;;2.6296455135296015;44.37489998674929
46382;BME280;66809;52.974;-2.514;2024-01-25T01:57:39;1019.8907531370322;;;2.6601515400331848;44.414024314483264
46382;BME280;66809;52.974;-2.514;2024-01-25T01:59:39;1019.865102158576;;;2.70752720760347;44.406812288165206
46382;BME280;66809;52.974;-2.514;2024-01-25T02:01:39;1019.837293339918;;;2.7494994729298057;44.39219844975547
46382;BME280;66809;52.974;-2.514;2024-01-25T02:03:39;1019.8076803985691;;;2.7854244848970087;44.37266472215769
46382;BME280;66809;52.974;-2.514;2024-01-25T02:05:39;1019.7786336030914;;;2.823458320265912;44.34686562118005
46382;BME280;66809;52.974;-2.514;2024-01-25T02:07:40;1019.7484864089705;;;2.867699167940289;44.311519184227784
46382;BME280;66809;52.974;-2.514;2024-01-25T02:09:39;1019.7174274568812;;;2.9109738919877146;44.27257844492279
46382;BME280;66809;52.974;-2.514;2024-01-25T02:11:39;1019.6849807575709;;;2.959063977966123;44.225331385742074
46382;BME280;66809;52.974;-2.514;2024-01-25T02:13:39;1019.6512891053478;;;2.995300052793486;44.17401312975807
46382;BME280;66809;52.974;-2.514;2024-01-25T02:15:39;1019.6163080992467;;;3.040768920214704;44.127418024440516
46382;BME280;66809;52.974;-2.514;2024-01-25T02:17:40;1019.579823219459;;;3.0742073347172427;44.07889382645445
46382;BME280;66809;52.974;-2.514;2024-01-25T02:19:39;1019.539997667832;;;3.105293344142339;44.022839342248616
46382;BME280;66809;52.974;-2.514;2024-01-25T02:21:39;1019.4967707778512;;;3.127415030333828;43.97897214955049
46382;BME280;66809;52.974;-2.514;2024-01-25T02:23:39;1019.4520050332492;;;3.156845545813413;43.96660150740889
46382;BME280;66809;52.974;-2.514;2024-01-25T02:25:39;1019.4107797928901;;;3.191928517199588;43.940758505180426
46382;BME280;66809;52.974;-2.514;2024-01-25T02:27:39;1019.3709288136347;;;3.215017697686783;43.91442269839341
46382;BME280;66809;52.974;-2.514;2024-01-25T02:29:39;1019.3340062683781;;;3.230124252620391;43.89113573806638
46382;BME280;66809;52.974;-2.514;2024-01-25T02:31:39;1019.2985586068354;;;3.257852427667566;43.87073070753706
46382;BME280;66809;52.974;-2.514;2024-01-25T02:33:39;1019.263128672986;;;3.2863199739601017;43.85060160318129
46382;BME280;66809;52.974;-2.514;2024-01-25T02:35:38;1019.2319176543426;;;3.3206332457590517;43.83123558894085
46382;BME280;66809;52.974;-2.514;2024-01-25T02:37:39;1019.2027347005225;;;3.353864487409511;43.81168959736237
46382;BME280;66809;52.974;-2.514;2024-01-25T02:39:39;1019.1727824730983;;;3.3858426629198632;43.78704102905373
46382;BME280;66809;52.974;-2.514;2024-01-25T02:41:39;1019.1449509621057;;;3.427080575486846;43.75072203635816
46382;BME280;66809;52.974;-2.514;2024-01-25T02:43:39;1019.1175078034153;;;3.4630512239359894;43.69762670535716
46382;BME280;66809;52.974;-2.514;2024-01-25T02:45:39;1019.0908843832518;;;3.5123629838828228;43.646163824482734
46382;BME280;66809;52.974;-2.514;2024-01-25T02:47:39;1019.0624075202318;;;3.5517920393679723;43.57672602058143
46382;BME280;66809;52.974;-2.514;2024-01-25T02:49:39;1019.0319864698981;;;3.6002384343983866;43.504673513922704
46382;BME280;66809;52.974;-2.514;2024-01-25T02:51:39;1019.0015821532676;;;3.638356844474687;43.4367918192392
46382;BME280;66809;52.974;-2.514;2024-01-25T02:53:39;1018.9704233535776;;;3.6706913681474087;43.36533439854032
46382;BME280;66809;52.974;-2.514;2024-01-25T02:55:39;1018.9397978517113;;;3.709183676713934;43.302662630959006
46382;BME280;66809;52.974;-2.514;2024-01-25T02:57:39;1018.9101426043021;;;3.756502449943976;43.24106653096928
46382;BME280;66809;52.974;-2.514;2024-01-25T02:59:39;1018.880425338131;;;3.7982090533454103;43.18657376174039
46382;BME280;66809;52.974;-2.514;2024-01-25T03:01:41;1018.8530858366169;;;3.826288927658548;43.12897096739423
46382;BME280;66809;52.974;-2.514;2024-01-25T03:03:39;1018.8287454643475;;;3.8530258623998974;43.077514026996276
46382;BME280;66809;52.974;-2.514;2024-01-25T03:05:39;1018.804576907179;;;3.882758688304999;43.03315216846397
46382;BME280;66809;52.974;-2.514;2024-01-25T03:07:39;1018.7818597124702;;;3.8924087967318557;42.99463808844255
46382;BME280;66809;52.974;-2.514;2024-01-25T03:09:39;1018.7607297280823;;;3.905407623788821;42.95937260753581
46382;BME280;66809;52.974;-2.514;2024-01-25T03:11:39;1018.7409928842004;;;3.9136092029905;42.93635099464224
46382;BME280;66809;52.974;-2.514;2024-01-25T03:13:39;1018.7221522047429;;;3.91639895089549;42.92105535319484
46382;BME280;66809;52.974;-2.514;2024-01-25T03:15:39;1018.7049330796684;;;3.920594761546215;42.89948493418464
46382;BME280;66809;52.974;-2.514;2024-01-25T03:17:39;1018.6877447140251;;;3.9359442695102245;42.87367274819706
46382;BME280;66809;52.974;-2.514;2024-01-25T03:19:39;1018.673366013067;;;3.9497562984764634;42.85123547252202
46382;BME280;66809;52.974;-2.514;2024-01-25T03:21:39;1018.6617594113123;;;3.968289945374266;42.83288799363552
46382;BME280;66809;52.974;-2.514;2024-01-25T03:23:39;1018.650632807215;;;3.9790136666861216;42.80683850360375
46382;BME280;66809;52.974;-2.514;2024-01-25T03:25:40;1018.6349632992095;;;3.9868472811056037;42.78724558412632
46382;BME280;66809;52.974;-2.514;2024-01-25T03:27:39;1018.6161234533553;;;3.9995839018663726;42.77033297563337
46382;BME280;66809;52.974;-2.514;2024-01-25T03:29:41;1018.5937432373231;;;4.004045080033982;42.76736755638698
46382;BME280;66809;52.974;-2.514;2024-01-25T03:31:40;1018.5707708768662;;;4.005120468397159;42.768339294404385
46382;BME280;66809;52.974;-2.514;2024-01-25T03:33:39;1018.547380577634;;;3.995510910104074;42.78018760279288
46382;BME280;66809;52.974;-2.514;2024-01-25T03:35:39;1018.5243709880016;;;3.9897793633457734;42.802047045602656
46382;BME280;66809;52.974;-2.514;2024-01-25T03:37:39;1018.5024764874398;;;3.9761672187082566;42.83564060004406
46382;BME280;66809;52.974;-2.514;2024-01-25T03:39:39;1018.4825169814958;;;3.965091846815147;42.884157544948586
46382;BME280;66809;52.974;-2.514;2024-01-25T03:41:39;1018.4593421133922;;;3.940776174269095;42.9371171013014
46382;BME280;66809;52.974;-2.514;2024-01-25T03:43:39;1018.4361066941387;;;3.9272811314122706;42.99232327120724
46382;BME280;66809;52.974;-2.514;2024-01-25T03:45:40;1018.4124514225125;;;3.8999006152031566;43.04668660683526
46382;BME280;66809;52.974;-2.514;2024-01-25T03:47:39;1018.3881501732134;;;3.892077831379288;43.1153603386962
46382;BME280;66809;52.974;-2.514;2024-01-25T03:49:39;1018.3632131128682;;;3.8708706773452675;43.18472287929439
46382;BME280;66809;52.974;-2.514;2024-01-25T03:51:39;1018.3364769019526;;;3.8562767679155234;43.25272960832688
46382;BME280;66809;52.974;-2.514;2024-01-25T03:53:39;1018.3099766412256;;;3.848746781058178;43.32238694669903
46382;BME280;66809;52.974;-2.514;2024-01-25T03:55:41;1018.2838631167741;;;3.836993076157325;43.37905007989784
46382;BME280;66809;52.974;-2.514;2024-01-25T03:57:39;1018.2570755008632;;;3.832706562645797;43.43079432309907
46382;BME280;66809;52.974;-2.514;2024-01-25T03:59:39;1018.2284669797409;;;3.8292283404451952;43.47609519988593
46382;BME280;66809;52.974;-2.514;2024-01-25T04:01:42;1018.1965973914901;;;3.83899880440636;43.51957744930165
46382;BME280;66809;52.974;-2.514;2024-01-25T04:03:39;1018.15893902429;;;3.845457812883675;43.55611069825097
46382;BME280;66809;52.974;-2.514;2024-01-25T04:05:39;1018.1184145327389;;;3.8356483524328224;43.59698065466818
46382;BME280;66809;52.974;-2.514;2024-01-25T04:07:40;1018.077408154682;;;3.8414082899535633;43.64884288022628
46382;BME280;66809;52.974;-2.514;2024-01-25T04:09:39;1018.0380976582422;;;3.8345057479579427;43.703829538497786
46382;BME280;66809;52.974;-2.514;2024-01-25T04:11:39;1017.9989068742832;;;3.834625112358888;43.7566962779031
46382;BME280;66809;52.974;-2.514;2024-01-25T04:13:40;1017.9617597531349;;;3.8445401462701043;43.808400450719546
46382;BME280;66809;52.974;-2.514;2024-01-25T04:15:39;1017.9256485261333;;;3.8478910815106033;43.85975082829034
46382;BME280;66809;52.974;-2.514;2024-01-25T04:17:39;1017.8918191040134;;;3.845287099042866;43.911965690341944
46382;BME280;66809;52.974;-2.514;2024-01-25T04:19:39;1017.8574944131269;;;3.8474497762587263;43.96371382822142
46382;BME280;66809;52.974;-2.514;2024-01-25T04:21:39;1017.8246327901096;;;3.8453432255128948;44.005423380524704
46382;BME280;66809;52.974;-2.514;2024-01-25T04:23:39;1017.7924123387908;;;3.861734547256756;44.04434703810683
46382;BME280;66809;52.974;-2.514;2024-01-25T04:25:39;1017.7624848264214;;;3.8824694426572877;44.07605304680114
46382;BME280;66809;52.974;-2.514;2024-01-25T04:27:39;1017.7329387330554;;;3.897284772016441;44.09493449767243
46382;BME280;66809;52.974;-2.514;2024-01-25T04:29:40;1017.7056186911879;;;3.9286475615031207;44.101979208427544
46382;BME280;66809;52.974;-2.514;2024-01-25T04:31:43;1017.6784867608912;;;3.950021468953852;44.10438529293438
46382;BME280;66809;52.974;-2.514;2024-01-25T04:33:39;1017.6516333019135;;;3.983652691750439;44.09510948874319
46382;BME280;66809;52.974;-2.514;2024-01-25T04:35:39;1017.6208483286659;;;4.014966849677963;44.0768622919607
46382;BME280;66809;52.974;-2.514;2024-01-25T04:37:39;1017.5877987719518;;;4.0375439191287565;44.049652166075106
46382;BME280;66809;52.974;-2.514;2024-01-25T04:39:39;1017.5533091697002;;;4.0659612853787275;44.01279430358651
46382;BME280;66809;52.974;-2.514;2024-01-25T04:41:39;1017.5219459392295;;;4.087566787456304;43.9827819240859
46382;BME280;66809;52.974;-2.514;2024-01-25T04:43:39;1017.492150893734;;;4.099464295020559;43.958247446551105
46382;BME280;66809;52.974;-2.514;2024-01-25T04:45:39;1017.461677383141;;;4.123948047107809;43.941123634236185
46382;BME280;66809;52.974;-2.514;2024-01-25T04:47:39;1017.4330874830165;;;4.147290950990659;43.92933621080819
46382;BME280;66809;52.974;-2.514;2024-01-25T04:49:40;1017.407761766088;;;4.175552389255324;43.915136754304775
46382;BME280;66809;52.974;-2.514;2024-01-25T04:51:39;1017.3837808556883;;;4.198236979217746;43.89890780528835
46382;BME280;66809;52.974;-2.514;2024-01-25T04:53:39;1017.3605265282503;;;4.211478768485413;43.8850065492792
46382;BME280;66809;52.974;-2.514;2024-01-25T04:55:39;1017.3370717092065;;;4.230962400523572;43.88103090588433
46382;BME280;66809;52.974;-2.514;2024-01-25T04:57:39;1017.3135456863118;;;4.2498189245496345;43.88023591450693
46382;BME280;66809;52.974;-2.514;2024-01-25T04:59:39;1017.2906523593684;;;4.252155561047861;43.89149178910389
46382;BME280;66809;52.974;-2.514;2024-01-25T05:01:39;1017.270921414555;;;4.265744348998903;43.910673240731825
46382;BME280;66809;52.974;-2.514;2024-01-25T05:03:39;1017.2550016230648;;;4.277592783693914;43.9314260845503
46382;BME280;66809;52.974;-2.514;2024-01-25T05:05:39;1017.2419052312105;;;4.3029389545827;43.94814637058028
46382;BME280;66809;52.974;-2.514;2024-01-25T05:07:39;1017.22817593718;;;4.316088371582231;43.95609498379979
46382;BME280;66809;52.974;-2.514;2024-01-25T05:09:39;1017.2124035337546;;;4.336888070003012;43.965191042276764
46382;BME280;66809;52.974;-2.514;2024-01-25T05:11:39;1017.1952330859069;;;4.349094751461814;43.989640743811236
46382;BME280;66809;52.974;-2.514;2024-01-25T05:13:39;1017.1758518253538;;;4.364016364065447;44.024124125113325
46382;BME280;66809;52.974;-2.514;2024-01-25T05:15:39;1017.1534595677193;;;4.373325771487069;44.06263076746426
46382;BME280;66809;52.974;-2.514;2024-01-25T05:17:39;1017.129560903568;;;4.38397102347172;44.10414402695307
46382;BME280;66809;52.974;-2.514;2024-01-25T05:19:39;1017.1048204890473;;;4.395772685238482;44.1406472665006
46382;BME280;66809;52.974;-2.514;2024-01-25T05:21:39;1017.0791810648476;;;4.411868773906142;44.17868755121276
46382;BME280;66809;52.974;-2.514;2024-01-25T05:23:39;1017.0539235536318;;;4.425049526505165;44.224633063540296
46382;BME280;66809;52.974;-2.514;2024-01-25T05:25:39;1017.0279716802128;;;4.420547341902301;44.276071054826865
46382;BME280;66809;52.974;-2.514;2024-01-25T05:27:39;1017.0016251924252;;;4.421796679904576;44.34187987736287
46382;BME280;66809;52.974;-2.514;2024-01-25T05:29:39;1016.9771768218314;;;4.41972379231979;44.41176154312117
46382;BME280;66809;52.974;-2.514;2024-01-25T05:31:39;1016.9523825502366;;;4.4192538361301255;44.49245168923114
46382;BME280;66809;52.974;-2.514;2024-01-25T05:33:39;1016.9254302794903;;;4.416826322433319;44.58569655940167
46382;BME280;66809;52.974;-2.514;2024-01-25T05:35:39;1016.896755519819;;;4.415769497211932;44.694659082340316
46382;BME280;66809;52.974;-2.514;2024-01-25T05:37:39;1016.8684244866657;;;4.425069472813986;44.815741395340915
46382;BME280;66809;52.974;-2.514;2024-01-25T05:39:39;1016.8406583013012;;;4.420193577067576;44.94538239894966
46382;BME280;66809;52.974;-2.514;2024-01-25T05:41:40;1016.8129875557112;;;4.414278900809262;45.078470363733786
46382;BME280;66809;52.974;-2.514;2024-01-25T05:43:39;1016.784982340214;;;4.412473818480719;45.21869104794265
46382;BME280;66809;52.974;-2.514;2024-01-25T05:45:39;1016.7597258350258;;;4.406466723985471;45.359318490484746
46382;BME280;66809;52.974;-2.514;2024-01-25T05:47:38;1016.7349783471025;;;4.395719918021628;45.494463765879296
46382;BME280;66809;52.974;-2.514;2024-01-25T05:49:40;1016.7100245271743;;;4.379791128266491;45.62141041539034
46382;BME280;66809;52.974;-2.514;2024-01-25T05:51:39;1016.6848705849428;;;4.375665971937486;45.75059005031888
46382;BME280;66809;52.974;-2.514;2024-01-25T05:53:39;1016.661733846257;;;4.3731131432684585;45.88204246975618
46382;BME280;66809;52.974;-2.514;2024-01-25T05:55:39;1016.6383833235984;;;4.364249519246139;46.01174629841402
46382;BME280;66809;52.974;-2.514;2024-01-25T05:57:39;1016.615106389031;;;4.352980052569003;46.14566985335132
46382;BME280;66809;52.974;-2.514;2024-01-25T05:59:39;1016.5934432757155;;;4.359712164457094;46.27162799727977
46382;BME280;66809;52.974;-2.514;2024-01-25T06:01:39;1016.5711731784995;;;4.3433518881506386;46.39247211803453
46382;BME280;66809;52.974;-2.514;2024-01-25T06:03:39;1016.5480684404699;;;4.328555532171536;46.51097056528286
46382;BME280;66809;52.974;-2.514;2024-01-25T06:05:39;1016.5214687304474;;;4.31249894030062;46.62695563055238
46382;BME280;66809;52.974;-2.514;2024-01-25T06:07:39;1016.4913633177447;;;4.302475893167812;46.745067621273506
46382;BME280;66809;52.974;-2.514;2024-01-25T06:09:39;1016.4619803836173;;;4.300937869771116;46.86856899285994
46382;BME280;66809;52.974;-2.514;2024-01-25T06:11:39;1016.4339560345545;;;4.310648987782246;46.97928127392755
46382;BME280;66809;52.974;-2.514;2024-01-25T06:13:39;1016.4058484264174;;;4.3006662036696515;47.09107498686857
46382;BME280;66809;52.974;-2.514;2024-01-25T06:15:39;1016.378208463332;;;4.308739033163312;47.20124839142728
46382;BME280;66809;52.974;-2.514;2024-01-25T06:17:39;1016.3477161894662;;;4.304463890638741;47.29977889434399
46382;BME280;66809;52.974;-2.514;2024-01-25T06:19:39;1016.3144164162903;;;4.307168137155971;47.41048418913942
46382;BME280;66809;52.974;-2.514;2024-01-25T06:21:39;1016.2816573371481;;;4.3091162509028855;47.521461129882915
46382;BME280;66809;52.974;-2.514;2024-01-25T06:23:39;1016.2497978748244;;;4.2851988609128036;47.62922404435311
46382;BME280;66809;52.974;-2.514;2024-01-25T06:25:39;1016.2171139754896;;;4.279124036900031;47.72977107758324
46382;BME280;66809;52.974;-2.514;2024-01-25T06:27:39;1016.1833435393409;;;4.273134989391346;47.81752453673296
46382;BME280;66809;52.974;-2.514;2024-01-25T06:29:39;1016.1492038484524;;;4.264062573415363;47.90602368304581
46382;BME280;66809;52.974;-2.514;2024-01-25T06:31:42;1016.1181570865195;;;4.271801099098001;47.97847752175844
46382;BME280;66809;52.974;-2.514;2024-01-25T06:33:39;1016.0889381966884;;;4.265331911052696;48.04264705410157
46382;BME280;66809;52.974;-2.514;2024-01-25T06:35:40;1016.0634991984813;;;4.268035438182221;48.10115825511128
46382;BME280;66809;52.974;-2.514;2024-01-25T06:37:39;1016.0383816314722;;;4.258919059689596;48.13784453744749
46382;BME280;66809;52.974;-2.514;2024-01-25T06:39:39;1016.0138561678646;;;4.2772848335774505;48.152346343249924
46382;BME280;66809;52.974;-2.514;2024-01-25T06:41:39;1015.9860515536008;;;4.290027506357394;48.15310089959117
46382;BME280;66809;52.974;-2.514;2024-01-25T06:43:39;1015.9595581475907;;;4.3143319539243485;48.14522854423536
46382;BME280;66809;52.974;-2.514;2024-01-25T06:45:39;1015.9324476941786;;;4.335400594474049;48.127326952807024
46382;BME280;66809;52.974;-2.514;2024-01-25T06:47:39;1015.905787536713;;;4.36176346558853;48.10709334456314
46382;BME280;66809;52.974;-2.514;2024-01-25T06:49:39;1015.8783221278516;;;4.390076722554212;48.09715248502051
46382;BME280;66809;52.974;-2.514;2024-01-25T06:51:39;1015.8509418912321;;;4.405200084927006;48.08651155707263
46382;BME280;66809;52.974;-2.514;2024-01-25T06:53:39;1015.823904517457;;;4.431033655858284;48.0704302426687
46382;BME280;66809;52.974;-2.514;2024-01-25T06:55:39;1015.7970911779222;;;4.457144478100414;48.04932711746302
46382;BME280;66809;52.974;-2.514;2024-01-25T06:57:39;1015.7699954155877;;;4.476453585912785;48.02236791782266
46382;BME280;66809;52.974;-2.514;2024-01-25T06:59:40;1015.74311455526;;;4.503614616018231;47.99422174388723
46382;BME280;66809;52.974;-2.514;2024-01-25T07:01:39;1015.7162200932578;;;4.538212273324822;47.96038042957309
46382;BME280;66809;52.974;-2.514;2024-01-25T07:03:39;1015.688445698616;;;4.572509275615683;47.927741841487645
46382;BME280;66809;52.974;-2.514;2024-01-25T07:05:39;1015.6638610791349;;;4.611317953873358;47.88488205434173
46382;BME280;66809;52.974;-2.514;2024-01-25T07:07:39;1015.6459462995151;;;4.641056511056987;47.8399981447902
46382;BME280;66809;52.974;-2.514;2024-01-25T07:09:39;1015.627683223212;;;4.673060496582878;47.78305936707063
46382;BME280;66809;52.974;-2.514;2024-01-25T07:11:39;1015.6095006481789;;;4.705726987988923;47.71817132509746